Biotrans — JWPN — position and weather

sailwx.info

Track history (hours):
 
Tides and Currents Weather Stations Pressure Air Temp Water Temp Dewpoint Dewpoint Depression Visibility Wind Speed Wind Dir Waves Ship Positions

Biotrans

Last reported at 2017-Aug-22 14:30 UTC. Time now 2017-Aug-22 14:49 UTC.
Position N 61°10' E 005°00'.

Length 55 m; draft 5.5 m.

Type: Cargo ship. MMSI: 259260000.

Date/timePositionNaut miles runAvg speedWind from/ knotsBaromVisibWave heightAir tempDewpointWater temp
2017-Aug-22 14:30N 61°10' E 005°00'1 1.9
2017-Aug-22 14:00N 61°11' E 005°01'4 8.7
2017-Aug-22 13:30N 61°15' E 004°55'4 8.0
2017-Aug-22 13:00N 61°18' E 005°01'510.8
2017-Aug-22 12:30N 61°20' E 005°11'3 6.3
2017-Aug-22 12:00N 61°21' E 005°17'3 6.3
2017-Aug-22 11:30N 61°20' E 005°11'3 6.2
2017-Aug-22 11:00N 61°18' E 005°07'0 0.0
2017-Aug-22 10:30N 61°18' E 005°07'2 3.6
2017-Aug-22 10:00N 61°19' E 005°04'510.2
2017-Aug-22 09:30N 61°24' E 004°59'5 9.9
2017-Aug-22 09:00N 61°29' E 004°59'5 9.8
2017-Aug-22 08:30N 61°34' E 004°59'3 5.6
2017-Aug-22 07:59N 61°36' E 005°02'0 0.1
2017-Aug-22 07:30N 61°36' E 005°02'0 0.0
2017-Aug-22 07:00N 61°36' E 005°02'0 0.0
2017-Aug-22 06:30N 61°36' E 005°02'0 0.0
2017-Aug-22 06:00N 61°36' E 005°02'0 0.1
2017-Aug-22 05:29N 61°36' E 005°02'0 0.0
2017-Aug-22 04:59N 61°36' E 005°02'0 0.1
2017-Aug-22 04:30N 61°36' E 005°02'0 0.1
2017-Aug-22 03:59N 61°36' E 005°02'0 0.1
2017-Aug-22 03:30N 61°36' E 005°02'0 0.2
2017-Aug-22 03:00N 61°36' E 005°02'3 5.0
2017-Aug-22 02:30N 61°38' E 004°59'4 9.2
2017-Aug-22 02:00N 61°43' E 004°58'5 9.3
2017-Aug-22 01:30N 61°46' E 005°03'5 9.7
2017-Aug-22 01:00N 61°49' E 005°12'3 6.2
2017-Aug-22 00:29N 61°52' E 005°14'2 4.2
2017-Aug-22 00:00N 61°54' E 005°16'5 9.7
2017-Aug-21 23:30N 61°55' E 005°26'5 9.4
2017-Aug-21 22:59N 61°54' E 005°36'1 2.3
2017-Aug-21 22:30N 61°54' E 005°38'0 0.3
2017-Aug-21 22:00N 61°54' E 005°38'0 0.0
2017-Aug-21 21:30N 61°54' E 005°38'0 0.0
2017-Aug-21 21:00N 61°54' E 005°38'0 0.0
2017-Aug-21 20:30N 61°54' E 005°38'0 0.0
2017-Aug-21 20:00N 61°54' E 005°38'0 0.0
2017-Aug-21 19:30N 61°54' E 005°38'0 0.0
2017-Aug-21 19:00N 61°54' E 005°38'0 0.0
2017-Aug-21 18:30N 61°54' E 005°38'0 0.0
2017-Aug-21 18:00N 61°54' E 005°38'0 0.0
2017-Aug-21 17:30N 61°54' E 005°38'0 0.0
2017-Aug-21 17:00N 61°54' E 005°38'0 0.0
2017-Aug-21 16:30N 61°54' E 005°38'0 0.0
2017-Aug-21 15:59N 61°54' E 005°38'0 0.0
2017-Aug-21 15:29N 61°54' E 005°38'0 0.0
2017-Aug-21 15:00N 61°54' E 005°38'0 0.0
2017-Aug-21 14:30N 61°54' E 005°38'0 0.0
2017-Aug-21 14:00N 61°54' E 005°38'0 0.0
2017-Aug-21 13:30N 61°54' E 005°38'0 0.0
2017-Aug-21 13:00N 61°54' E 005°38'0 0.0
2017-Aug-21 12:30N 61°54' E 005°38'0 0.0
2017-Aug-21 12:00N 61°54' E 005°38'0 0.0
2017-Aug-21 11:30N 61°54' E 005°38'0 0.0
2017-Aug-21 11:00N 61°54' E 005°38'0 0.0
2017-Aug-21 10:30N 61°54' E 005°38'0 0.0
2017-Aug-21 10:00N 61°54' E 005°38'0 0.0
2017-Aug-21 09:30N 61°54' E 005°38'0 0.1
2017-Aug-21 08:59N 61°54' E 005°38'0 0.0
2017-Aug-21 08:30N 61°54' E 005°38'0 0.0
2017-Aug-21 07:59N 61°54' E 005°38'0 0.0
2017-Aug-21 07:30N 61°54' E 005°38'0 0.0
2017-Aug-21 07:00N 61°54' E 005°38'0 0.1
2017-Aug-21 06:30N 61°54' E 005°38'0 0.0
2017-Aug-21 06:00N 61°54' E 005°38'3 5.8
2017-Aug-21 05:30N 61°55' E 005°32'5 9.2
2017-Aug-21 05:00N 61°55' E 005°22'5 9.5
2017-Aug-21 04:30N 61°54' E 005°13'3 6.9
2017-Aug-21 03:59N 61°56' E 005°08'4 9.0
2017-Aug-21 03:30N 62°01' E 005°09'5 9.5
2017-Aug-21 03:00N 62°05' E 005°06'5 9.0
2017-Aug-21 02:30N 62°09' E 005°02'4 7.8
2017-Aug-21 02:00N 62°13' E 005°07'4 8.6
2017-Aug-21 01:30N 62°12' E 005°16'4 8.3
2017-Aug-21 01:00N 62°11' E 005°24'4 8.7
2017-Aug-21 00:30N 62°11' E 005°33'5 9.0
2017-Aug-20 23:59N 62°12' E 005°43'4 9.1
2017-Aug-20 23:30N 62°12' E 005°53'1 2.0
2017-Aug-20 23:00N 62°12' E 005°54'0 0.1
2017-Aug-20 22:30N 62°12' E 005°54'0 0.1
2017-Aug-20 22:00N 62°12' E 005°54'0 0.0
2017-Aug-20 21:30N 62°12' E 005°54'0 0.0
2017-Aug-20 21:00N 62°12' E 005°54'0 0.0
2017-Aug-20 20:30N 62°12' E 005°54'0 0.0
2017-Aug-20 20:00N 62°12' E 005°54'0 0.0
2017-Aug-20 19:30N 62°12' E 005°54'0 0.0
2017-Aug-20 19:00N 62°12' E 005°54'0 0.0
2017-Aug-20 18:30N 62°12' E 005°54'0 0.0
2017-Aug-20 18:00N 62°12' E 005°54'0 0.0
2017-Aug-20 17:30N 62°12' E 005°54'0 0.0
2017-Aug-20 17:00N 62°12' E 005°54'0 0.0
2017-Aug-20 16:30N 62°12' E 005°54'0 0.0
2017-Aug-20 16:00N 62°12' E 005°54'0 0.0
2017-Aug-20 15:30N 62°12' E 005°54'0 0.0
2017-Aug-20 15:00N 62°12' E 005°54'0 0.0
2017-Aug-20 14:30N 62°12' E 005°54'0 0.0
2017-Aug-20 13:59N 62°12' E 005°54'0 0.0
2017-Aug-20 13:30N 62°12' E 005°54'0 0.0
2017-Aug-20 12:59N 62°12' E 005°54'0 0.6
2017-Aug-20 12:30N 62°12' E 005°55'5 9.1
2017-Aug-20 12:00N 62°16' E 005°58'4 9.0
2017-Aug-20 11:30N 62°19' E 006°04'3 6.1
2017-Aug-20 11:00N 62°22' E 006°02'0 0.2
2017-Aug-20 10:30N 62°22' E 006°02'0 0.0
2017-Aug-20 09:59N 62°22' E 006°02'0 0.0
2017-Aug-20 09:30N 62°22' E 006°02'0 0.0
2017-Aug-20 09:00N 62°22' E 006°02'0 0.0
2017-Aug-20 08:30N 62°22' E 006°02'0 0.0
2017-Aug-20 08:00N 62°22' E 006°02'0 0.0
2017-Aug-20 07:30N 62°22' E 006°02'0 0.0
2017-Aug-20 07:00N 62°22' E 006°02'0 0.0
2017-Aug-20 06:30N 62°22' E 006°02'0 0.0
2017-Aug-20 05:59N 62°22' E 006°02'0 0.0
2017-Aug-20 05:30N 62°22' E 006°02'2 4.3
2017-Aug-20 05:00N 62°25' E 006°02'4 7.7
2017-Aug-20 04:30N 62°28' E 006°05'1 2.7
2017-Aug-20 04:00N 62°28' E 006°08'0 0.0
2017-Aug-20 03:30N 62°28' E 006°08'0 0.0
2017-Aug-20 03:00N 62°28' E 006°08'3 6.4
2017-Aug-20 02:30N 62°31' E 006°09'5 9.3
2017-Aug-20 02:00N 62°35' E 006°15'5 9.5
2017-Aug-20 01:30N 62°38' E 006°23'5 9.2
2017-Aug-20 01:00N 62°42' E 006°28'5 9.4
2017-Aug-20 00:30N 62°46' E 006°34'5 9.2
2017-Aug-20 00:00N 62°50' E 006°39'5 9.2
2017-Aug-19 23:30N 62°54' E 006°45'5 9.4
2017-Aug-19 23:00N 62°57' E 006°51'4 9.0
2017-Aug-19 22:30N 62°60' E 006°60'5 9.3
2017-Aug-19 22:00N 63°01' E 007°09'5 9.3
2017-Aug-19 21:30N 63°03' E 007°19'5 9.2
2017-Aug-19 21:00N 63°05' E 007°28'5 9.2
2017-Aug-19 20:30N 63°07' E 007°37'4 7.8
2017-Aug-19 20:00N 63°04' E 007°41'1 1.3
2017-Aug-19 19:30N 63°03' E 007°42'0 0.0
2017-Aug-19 19:00N 63°03' E 007°42'4 7.7
2017-Aug-19 18:30N 63°07' E 007°41'4 8.9
2017-Aug-19 18:00N 63°11' E 007°46'5 9.1
2017-Aug-19 17:30N 63°15' E 007°52'1 1.4
2017-Aug-19 17:00N 63°15' E 007°51'0 0.0
2017-Aug-19 16:30N 63°15' E 007°51'2 4.6
2017-Aug-19 16:00N 63°14' E 007°56'4 8.8
2017-Aug-19 15:30N 63°16' E 008°05'4 8.4
2017-Aug-19 15:00N 63°18' E 008°13'9 8.8
2017-Aug-19 14:00N 63°23' E 008°29'5 9.0
2017-Aug-19 13:30N 63°25' E 008°38'4 8.9
2017-Aug-19 13:00N 63°27' E 008°47'5 9.0
2017-Aug-19 12:30N 63°28' E 008°57'4 9.1
2017-Aug-19 12:00N 63°30' E 009°06'4 8.8
2017-Aug-19 11:30N 63°32' E 009°15'5 8.8
2017-Aug-19 11:00N 63°35' E 009°23'4 8.5
2017-Aug-19 10:30N 63°38' E 009°29'4 8.0
2017-Aug-19 10:00N 63°42' E 009°30'5 9.2
2017-Aug-19 09:30N 63°47' E 009°33'5 9.7
2017-Aug-19 09:00N 63°51' E 009°38'5 9.8
2017-Aug-19 08:29N 63°53' E 009°48'2 3.5
2017-Aug-19 08:00N 63°53' E 009°52'0 0.0
2017-Aug-19 07:30N 63°53' E 009°52'0 0.0
2017-Aug-19 07:00N 63°53' E 009°52'0 0.0
2017-Aug-19 06:30N 63°53' E 009°52'0 0.0
2017-Aug-19 06:00N 63°53' E 009°52'0 0.0
2017-Aug-19 05:30N 63°53' E 009°52'0 0.0
2017-Aug-19 05:00N 63°53' E 009°52'0 0.0
2017-Aug-19 04:30N 63°53' E 009°52'0 0.0
2017-Aug-19 04:00N 63°53' E 009°52'0 0.0
2017-Aug-19 03:30N 63°53' E 009°52'0 0.0
2017-Aug-19 03:00N 63°53' E 009°52'0 0.0
2017-Aug-19 02:30N 63°53' E 009°52'0 0.0
2017-Aug-19 02:00N 63°53' E 009°52'0 0.0
2017-Aug-19 01:30N 63°53' E 009°52'0 0.0
2017-Aug-19 01:00N 63°53' E 009°52'0 0.0
2017-Aug-19 00:30N 63°53' E 009°52'0 0.0
2017-Aug-19 00:00N 63°53' E 009°52'0 0.0
2017-Aug-18 23:30N 63°53' E 009°52'0 0.0
2017-Aug-18 23:00N 63°53' E 009°52'0 0.0
2017-Aug-18 22:30N 63°53' E 009°52'0 0.0
2017-Aug-18 22:00N 63°53' E 009°52'0 0.0
2017-Aug-18 21:30N 63°53' E 009°52'0 0.0
2017-Aug-18 21:00N 63°53' E 009°52'0 0.0
2017-Aug-18 20:30N 63°53' E 009°52'0 0.0
2017-Aug-18 20:00N 63°53' E 009°52'0 0.0
2017-Aug-18 19:30N 63°53' E 009°52'0 0.0
2017-Aug-18 19:00N 63°53' E 009°52'0 0.0
2017-Aug-18 18:30N 63°53' E 009°52'0 0.0
2017-Aug-18 18:00N 63°53' E 009°52'0 0.0
2017-Aug-18 17:30N 63°53' E 009°52'0 0.0
2017-Aug-18 17:00N 63°53' E 009°52'0 0.0
2017-Aug-18 16:30N 63°53' E 009°52'0 0.0
2017-Aug-18 16:00N 63°53' E 009°52'0 0.0
2017-Aug-18 15:30N 63°53' E 009°52'0 0.0
2017-Aug-18 15:00N 63°53' E 009°52'0 0.0
2017-Aug-18 14:29N 63°53' E 009°52'0 0.0
2017-Aug-18 13:30N 63°53' E 009°52'0 0.0
2017-Aug-18 13:00N 63°53' E 009°52'0 0.0
2017-Aug-18 12:30N 63°53' E 009°52'0 0.0
2017-Aug-18 11:59N 63°53' E 009°52'0 0.0
2017-Aug-18 11:30N 63°53' E 009°52'0 0.0
2017-Aug-18 11:00N 63°53' E 009°52'0 0.0
2017-Aug-18 10:30N 63°53' E 009°52'0 0.0
2017-Aug-18 10:00N 63°53' E 009°52'0 0.0
2017-Aug-18 09:30N 63°53' E 009°52'0 0.0
2017-Aug-18 09:00N 63°53' E 009°52'0 0.0
2017-Aug-18 08:30N 63°53' E 009°52'0 0.0
2017-Aug-18 08:00N 63°53' E 009°52'0 0.0
2017-Aug-18 07:30N 63°53' E 009°52'0 0.0
2017-Aug-18 07:00N 63°53' E 009°52'0 0.0
2017-Aug-18 06:30N 63°53' E 009°52'0 0.0
2017-Aug-18 06:00N 63°53' E 009°52'0 0.0
2017-Aug-18 05:30N 63°53' E 009°52'0 0.1
2017-Aug-18 05:00N 63°53' E 009°52'2 4.6
2017-Aug-18 04:30N 63°53' E 009°47'4 9.0
2017-Aug-18 04:00N 63°51' E 009°38'5 9.6
2017-Aug-18 03:30N 63°46' E 009°32'4 9.2
2017-Aug-18 03:00N 63°45' E 009°23'5 9.1
2017-Aug-18 02:30N 63°44' E 009°13'5 9.3
2017-Aug-18 02:00N 63°43' E 009°03'5 9.3
2017-Aug-18 01:30N 63°43' E 008°52'1 1.4
2017-Aug-18 01:00N 63°43' E 008°52'2 3.2
2017-Aug-18 00:30N 63°42' E 008°54'4 8.4
2017-Aug-18 00:00N 63°40' E 008°45'4 8.9
2017-Aug-17 23:30N 63°39' E 008°35'4 9.0
2017-Aug-17 23:00N 63°38' E 008°26'5 9.2
2017-Aug-17 22:30N 63°36' E 008°17'5 9.8
2017-Aug-17 22:00N 63°32' E 008°09'4 8.9
2017-Aug-17 21:30N 63°30' E 008°01'0 0.1
2017-Aug-17 21:00N 63°30' E 008°01'3 6.1
2017-Aug-17 20:30N 63°29' E 008°07'510.3
2017-Aug-17 20:00N 63°25' E 008°16'12 9.5
2017-Aug-17 18:45N 63°27' E 008°43'2 6.3
2017-Aug-17 18:30N 63°27' E 008°47'5 9.1
2017-Aug-17 17:59N 63°29' E 008°56'4 9.1
2017-Aug-17 17:30N 63°30' E 009°06'4 8.4
2017-Aug-17 17:00N 63°32' E 009°14'4 7.5
2017-Aug-17 16:30N 63°36' E 009°11'5 9.2
2017-Aug-17 16:00N 63°37' E 009°01'0 1.0
2017-Aug-17 15:30N 63°37' E 008°59'0 0.3
2017-Aug-17 15:00N 63°37' E 008°60'0 0.0
2017-Aug-17 14:30N 63°37' E 008°60'0 0.0
2017-Aug-17 14:00N 63°37' E 008°60'0 0.0
2017-Aug-17 13:30N 63°37' E 008°60'0 0.0
2017-Aug-17 13:00N 63°37' E 008°60'0 0.0
2017-Aug-17 12:30N 63°37' E 008°60'0 0.0
2017-Aug-17 12:00N 63°37' E 008°60'0 0.0
2017-Aug-17 11:30N 63°37' E 008°60'0 0.0
2017-Aug-17 11:00N 63°37' E 008°60'0 0.1
2017-Aug-17 10:30N 63°37' E 008°60'0 0.0
2017-Aug-17 10:00N 63°37' E 008°60'0 0.0
2017-Aug-17 09:30N 63°37' E 008°60'0 0.0
2017-Aug-17 09:00N 63°37' E 008°60'0 0.0
2017-Aug-17 08:30N 63°37' E 008°60'0 0.0
2017-Aug-17 08:00N 63°37' E 008°60'0 0.0
2017-Aug-17 07:30N 63°37' E 008°60'0 0.0
2017-Aug-17 07:00N 63°37' E 008°60'0 0.1
2017-Aug-17 06:30N 63°37' E 008°60'0 0.0
2017-Aug-17 06:00N 63°37' E 008°60'0 0.0
2017-Aug-17 05:30N 63°37' E 008°60'0 0.0
2017-Aug-17 05:00N 63°37' E 008°60'0 0.0
2017-Aug-17 04:30N 63°37' E 008°60'0 0.0
2017-Aug-17 04:00N 63°37' E 008°60'0 0.0
2017-Aug-17 03:30N 63°37' E 008°60'0 0.0
2017-Aug-17 03:00N 63°37' E 008°60'0 0.0
2017-Aug-17 02:29N 63°37' E 008°60'0 0.1
2017-Aug-17 02:00N 63°37' E 008°60'0 0.0
2017-Aug-17 01:30N 63°37' E 008°60'0 0.0
2017-Aug-17 01:00N 63°37' E 008°60'0 0.0
2017-Aug-17 00:30N 63°37' E 008°60'0 0.0
2017-Aug-17 00:00N 63°37' E 008°60'0 0.0
2017-Aug-16 23:30N 63°37' E 008°60'0 0.0
2017-Aug-16 22:59N 63°37' E 008°60'0 0.0
2017-Aug-16 22:30N 63°37' E 008°60'0 0.0
2017-Aug-16 22:00N 63°37' E 008°60'1 1.0
2017-Aug-16 21:30N 63°37' E 009°01'5 9.6
2017-Aug-16 21:00N 63°36' E 009°11'4 7.5
2017-Aug-16 20:30N 63°32' E 009°12'510.3
2017-Aug-16 20:00N 63°29' E 009°02'5 9.9
2017-Aug-16 19:30N 63°28' E 008°51'510.3
2017-Aug-16 19:00N 63°26' E 008°40'510.4
2017-Aug-16 18:30N 63°25' E 008°29'510.2
2017-Aug-16 18:00N 63°24' E 008°18'2 4.8
2017-Aug-16 17:30N 63°24' E 008°13'2 5.0
2017-Aug-16 17:00N 63°22' E 008°17'5 9.4
2017-Aug-16 16:30N 63°18' E 008°13'510.7
2017-Aug-16 16:00N 63°15' E 008°03'510.5
2017-Aug-16 15:30N 63°13' E 007°53'510.4
2017-Aug-16 15:00N 63°10' E 007°43'510.4
2017-Aug-16 14:30N 63°07' E 007°34'510.2
2017-Aug-16 14:00N 63°04' E 007°24'510.2
2017-Aug-16 13:30N 63°02' E 007°14'510.2
2017-Aug-16 13:00N 63°00' E 007°03'510.4
2017-Aug-16 12:30N 62°58' E 006°53'510.1
2017-Aug-16 12:00N 62°54' E 006°46'510.2
2017-Aug-16 11:30N 62°50' E 006°40'510.1
2017-Aug-16 11:00N 62°46' E 006°34'510.1
2017-Aug-16 10:30N 62°42' E 006°27'510.1
2017-Aug-16 10:00N 62°38' E 006°21'510.0
2017-Aug-16 09:30N 62°34' E 006°13'5 9.7
2017-Aug-16 09:00N 62°30' E 006°09'5 9.8
2017-Aug-16 08:30N 62°27' E 005°60'5 9.9
2017-Aug-16 08:00N 62°25' E 005°50'5 9.8
2017-Aug-16 07:30N 62°21' E 005°45'4 8.3
2017-Aug-16 07:00N 62°18' E 005°37'5 9.5
2017-Aug-16 06:30N 62°18' E 005°27'5 9.7
2017-Aug-16 06:00N 62°16' E 005°17'510.0
2017-Aug-16 05:30N 62°13' E 005°08'5 9.1
2017-Aug-16 04:59N 62°09' E 005°04'5 9.8
2017-Aug-16 04:30N 62°04' E 005°07'5 9.3
2017-Aug-16 03:59N 61°60' E 005°10'5 9.7
2017-Aug-16 03:30N 61°55' E 005°07'4 8.9
2017-Aug-16 03:00N 61°52' E 005°14'3 6.7
2017-Aug-16 02:30N 61°49' E 005°11'5 9.7
2017-Aug-16 02:00N 61°46' E 005°03'5 9.2
2017-Aug-16 01:30N 61°42' E 004°58'5 9.2
2017-Aug-16 01:00N 61°38' E 004°59'4 8.6
2017-Aug-16 00:30N 61°34' E 004°59'5 9.2
2017-Aug-16 00:00N 61°29' E 004°59'5 9.8
2017-Aug-15 23:30N 61°25' E 004°52'5 9.9
2017-Aug-15 23:00N 61°21' E 004°48'5 9.8
2017-Aug-15 22:30N 61°16' E 004°45'4 8.7
2017-Aug-15 22:00N 61°12' E 004°43'5 9.3
2017-Aug-15 21:30N 61°07' E 004°45'5 9.5
2017-Aug-15 21:00N 61°02' E 004°44'5 9.7
2017-Aug-15 20:30N 60°58' E 004°46'5 9.6
2017-Aug-15 20:00N 60°53' E 004°46'5 9.1
2017-Aug-15 19:30N 60°48' E 004°45'5 9.3
2017-Aug-15 19:00N 60°45' E 004°52'1 1.2
2017-Aug-15 18:30N 60°45' E 004°53'0 0.3
2017-Aug-15 18:00N 60°45' E 004°53'0 0.3
2017-Aug-15 17:29N 60°45' E 004°53'0 0.0
2017-Aug-15 17:00N 60°45' E 004°53'0 0.0
2017-Aug-15 16:30N 60°45' E 004°53'0 0.0
2017-Aug-15 16:00N 60°45' E 004°53'0 0.0
2017-Aug-15 15:29N 60°45' E 004°53'0 0.0
2017-Aug-15 15:00N 60°45' E 004°53'0 0.0
2017-Aug-15 14:30N 60°45' E 004°53'0 0.0
2017-Aug-15 14:00N 60°45' E 004°53'0 0.0
2017-Aug-15 13:30N 60°45' E 004°53'0 0.0
2017-Aug-15 13:00N 60°45' E 004°53'0 0.0
2017-Aug-15 12:30N 60°45' E 004°53'0 0.0
2017-Aug-15 12:00N 60°45' E 004°53'0 0.0
2017-Aug-15 11:30N 60°45' E 004°53'0 0.0
2017-Aug-15 11:00N 60°45' E 004°53'0 0.0
2017-Aug-15 10:30N 60°45' E 004°53'0 0.0
2017-Aug-15 10:00N 60°45' E 004°53'0 0.0
2017-Aug-15 09:30N 60°45' E 004°53'0 0.0
2017-Aug-15 09:00N 60°45' E 004°53'0 0.0
2017-Aug-15 08:30N 60°45' E 004°53'0 0.0
2017-Aug-15 08:00N 60°45' E 004°53'1 1.0
2017-Aug-15 07:30N 60°45' E 004°52'3 7.0
2017-Aug-15 07:00N 60°42' E 004°50'510.6
2017-Aug-15 06:30N 60°37' E 004°54'510.6
2017-Aug-15 06:00N 60°32' E 004°57'510.5
2017-Aug-15 05:30N 60°27' E 005°01'5 9.8
2017-Aug-15 05:00N 60°24' E 005°08'4 8.1
2017-Aug-15 04:30N 60°20' E 005°09'4 8.0
2017-Aug-15 04:00N 60°16' E 005°07'0 0.2
2017-Aug-15 03:30N 60°16' E 005°06'4 7.2
2017-Aug-15 03:00N 60°13' E 005°10'4 8.7
2017-Aug-15 02:30N 60°09' E 005°06'3 5.9
2017-Aug-15 02:00N 60°06' E 005°05'1 2.8
2017-Aug-15 01:30N 60°06' E 005°07'0 0.1
2017-Aug-15 01:00N 60°06' E 005°07'2 3.2
2017-Aug-15 00:30N 60°04' E 005°07'510.7
2017-Aug-15 00:00N 60°00' E 005°13'510.1
2017-Aug-14 23:30N 59°58' E 005°23'510.8
2017-Aug-14 23:00N 59°55' E 005°31'510.1
2017-Aug-14 22:30N 59°50' E 005°33'510.0
2017-Aug-14 22:00N 59°45' E 005°37'4 9.2
2017-Aug-14 21:30N 59°42' E 005°43'4 8.6
2017-Aug-14 21:00N 59°45' E 005°48'0 0.4
2017-Aug-14 20:30N 59°46' E 005°48'4 7.6
2017-Aug-14 20:00N 59°42' E 005°44'4 8.7
2017-Aug-14 19:30N 59°43' E 005°36'4 8.7
2017-Aug-14 19:00N 59°43' E 005°27'5 9.6
2017-Aug-14 18:30N 59°39' E 005°21'5 9.8
2017-Aug-14 18:00N 59°35' E 005°15'5 9.4
2017-Aug-14 17:30N 59°31' E 005°13'5 9.4
2017-Aug-14 16:59N 59°26' E 005°14'4 8.6
2017-Aug-14 16:30N 59°22' E 005°18'5 9.3
2017-Aug-14 16:00N 59°18' E 005°20'3 6.4
2017-Aug-14 15:29N 59°15' E 005°24'1 1.5
2017-Aug-14 14:35N 59°14' E 005°22'110.3
2017-Aug-14 14:28N 59°13' E 005°22'4 9.2
2017-Aug-14 13:59N 59°08' E 005°24'4 8.7
2017-Aug-14 13:30N 59°09' E 005°32'5 9.8
2017-Aug-14 13:00N 59°11' E 005°41'5 9.6
2017-Aug-14 12:30N 59°12' E 005°50'4 7.9
2017-Aug-14 12:00N 59°12' E 005°58'0 1.0
2017-Aug-14 11:30N 59°13' E 005°57'2 3.3
2017-Aug-14 11:00N 59°14' E 005°60'4 8.5
2017-Aug-14 10:29N 59°17' E 006°06'1 2.8
2017-Aug-14 10:00N 59°17' E 006°04'1 3.0
2017-Aug-14 09:30N 59°18' E 006°01'1 2.5
2017-Aug-14 09:00N 59°18' E 005°59'0 0.0
2017-Aug-14 08:30N 59°18' E 005°59'3 5.7
2017-Aug-14 08:00N 59°16' E 005°55'4 8.5
2017-Aug-14 07:29N 59°12' E 005°50'4 9.2
2017-Aug-14 07:00N 59°11' E 005°42'5 9.1
2017-Aug-14 06:30N 59°09' E 005°33'4 8.1
2017-Aug-14 06:00N 59°07' E 005°26'4 8.5
2017-Aug-14 05:30N 59°10' E 005°21'5 8.9
2017-Aug-14 05:00N 59°15' E 005°20'5 9.7
2017-Aug-14 04:30N 59°20' E 005°19'5 9.7
2017-Aug-14 04:00N 59°24' E 005°16'5 9.3
2017-Aug-14 03:30N 59°29' E 005°13'5 9.4
2017-Aug-14 03:00N 59°33' E 005°13'4 9.1
2017-Aug-14 02:30N 59°37' E 005°18'5 9.2
2017-Aug-14 02:00N 59°41' E 005°23'4 9.2
2017-Aug-14 01:30N 59°44' E 005°30'5 9.0
2017-Aug-14 01:00N 59°48' E 005°33'5 9.3
2017-Aug-14 00:30N 59°53' E 005°32'4 9.0
2017-Aug-14 00:00N 59°57' E 005°27'5 9.1
2017-Aug-13 23:30N 60°00' E 005°21'5 9.5
2017-Aug-13 23:00N 60°05' E 005°19'5 9.4
2017-Aug-13 22:30N 60°09' E 005°15'5 9.4
2017-Aug-13 22:00N 60°13' E 005°10'4 8.8
2017-Aug-13 21:30N 60°17' E 005°11'4 8.7
2017-Aug-13 21:00N 60°22' E 005°10'5 9.1
2017-Aug-13 20:30N 60°25' E 005°04'5 9.4
2017-Aug-13 20:00N 60°29' E 004°59'5 9.5
2017-Aug-13 19:30N 60°34' E 004°56'5 9.3
2017-Aug-13 18:59N 60°38' E 004°53'2 4.5
2017-Aug-13 18:30N 60°40' E 004°55'0 0.3
2017-Aug-13 18:00N 60°40' E 004°55'0 0.5
2017-Aug-13 17:29N 60°40' E 004°55'0 0.0
2017-Aug-13 17:00N 60°40' E 004°55'0 0.0
2017-Aug-13 16:30N 60°40' E 004°55'0 0.1
2017-Aug-13 16:00N 60°40' E 004°55'0 0.0
2017-Aug-13 15:30N 60°40' E 004°55'0 0.0
2017-Aug-13 15:00N 60°40' E 004°55'0 0.0
2017-Aug-13 14:30N 60°40' E 004°55'0 0.5
2017-Aug-13 14:00N 60°40' E 004°55'0 0.0
2017-Aug-13 13:30N 60°40' E 004°55'0 0.0
2017-Aug-13 13:00N 60°40' E 004°55'0 0.0
2017-Aug-13 12:29N 60°40' E 004°55'0 0.0
2017-Aug-13 12:00N 60°40' E 004°55'0 0.0
2017-Aug-13 11:30N 60°40' E 004°55'0 0.0
2017-Aug-13 11:00N 60°40' E 004°55'0 0.0
2017-Aug-13 10:29N 60°40' E 004°55'0 0.0
2017-Aug-13 10:00N 60°40' E 004°55'0 0.3
2017-Aug-13 09:30N 60°40' E 004°55'0 0.0
2017-Aug-13 09:00N 60°40' E 004°55'0 0.0
2017-Aug-13 08:30N 60°40' E 004°55'0 0.0
2017-Aug-13 08:00N 60°40' E 004°55'0 0.0
2017-Aug-13 07:30N 60°40' E 004°55'0 0.0
2017-Aug-13 07:00N 60°40' E 004°55'0 0.0
2017-Aug-13 06:30N 60°40' E 004°55'0 0.0
2017-Aug-13 06:00N 60°40' E 004°55'2 3.8
2017-Aug-13 05:30N 60°41' E 004°52'2 5.0
2017-Aug-13 05:00N 60°43' E 004°48'3 6.5
2017-Aug-13 04:30N 60°46' E 004°46'3 6.4
2017-Aug-13 04:00N 60°49' E 004°44'4 7.9
2017-Aug-13 03:30N 60°53' E 004°46'4 8.0
2017-Aug-13 03:00N 60°57' E 004°46'4 8.0
2017-Aug-13 02:30N 61°00' E 004°49'510.1
2017-Aug-13 02:00N 61°03' E 004°58'510.5
2017-Aug-13 01:30N 61°05' E 005°07'5 9.5
2017-Aug-13 01:00N 61°05' E 005°17'5 9.4
2017-Aug-13 00:30N 61°04' E 005°27'5 9.7
2017-Aug-12 23:59N 61°06' E 005°37'5 9.7
2017-Aug-12 23:29N 61°08' E 005°46'5 9.5
2017-Aug-12 23:00N 61°08' E 005°56'4 7.4
2017-Aug-12 22:31N 61°07' E 006°02'0 0.3
2017-Aug-12 22:00N 61°07' E 006°03'3 6.7
2017-Aug-12 21:30N 61°09' E 006°07'1 1.1
2017-Aug-12 21:00N 61°09' E 006°06'510.2
2017-Aug-12 20:30N 61°08' E 005°56'510.1
2017-Aug-12 20:00N 61°08' E 005°45'5 9.9
2017-Aug-12 19:30N 61°06' E 005°36'5 9.7
2017-Aug-12 19:00N 61°04' E 005°26'5 9.2
2017-Aug-12 18:30N 61°05' E 005°17'5 9.7
2017-Aug-12 18:00N 61°08' E 005°08'510.3
2017-Aug-12 17:30N 61°11' E 005°01'5 9.6
2017-Aug-12 17:00N 61°15' E 004°55'5 9.3
2017-Aug-12 16:30N 61°18' E 005°02'5 9.9
2017-Aug-12 16:00N 61°21' E 005°12'3 5.4
2017-Aug-12 15:30N 61°21' E 005°17'3 5.2
2017-Aug-12 15:00N 61°21' E 005°12'  
Track history (hours):
 
Tides and Currents Weather Stations Pressure Air Temp Water Temp Dewpoint Dewpoint Depression Visibility Wind Speed Wind Dir Waves Ship Positions

Biotrans

Last reported at 2017-Aug-22 14:30 UTC. Time now 2017-Aug-22 14:49 UTC.
Position N 61°10' E 005°00'.

Length 55 m; draft 5.5 m.

Type: Cargo ship. MMSI: 259260000.

Date/timePositionNaut miles runAvg speedWind from/ knotsBaromVisibWave heightAir tempDewpointWater temp
2017-Aug-22 14:30N 61°10' E 005°00'1 1.9
2017-Aug-22 14:00N 61°11' E 005°01'4 8.7
2017-Aug-22 13:30N 61°15' E 004°55'4 8.0
2017-Aug-22 13:00N 61°18' E 005°01'510.8
2017-Aug-22 12:30N 61°20' E 005°11'3 6.3
2017-Aug-22 12:00N 61°21' E 005°17'3 6.3
2017-Aug-22 11:30N 61°20' E 005°11'3 6.2
2017-Aug-22 11:00N 61°18' E 005°07'0 0.0
2017-Aug-22 10:30N 61°18' E 005°07'2 3.6
2017-Aug-22 10:00N 61°19' E 005°04'510.2
2017-Aug-22 09:30N 61°24' E 004°59'5 9.9
2017-Aug-22 09:00N 61°29' E 004°59'5 9.8
2017-Aug-22 08:30N 61°34' E 004°59'3 5.6
2017-Aug-22 07:59N 61°36' E 005°02'0 0.1
2017-Aug-22 07:30N 61°36' E 005°02'0 0.0
2017-Aug-22 07:00N 61°36' E 005°02'0 0.0
2017-Aug-22 06:30N 61°36' E 005°02'0 0.0
2017-Aug-22 06:00N 61°36' E 005°02'0 0.1
2017-Aug-22 05:29N 61°36' E 005°02'0 0.0
2017-Aug-22 04:59N 61°36' E 005°02'0 0.1
2017-Aug-22 04:30N 61°36' E 005°02'0 0.1
2017-Aug-22 03:59N 61°36' E 005°02'0 0.1
2017-Aug-22 03:30N 61°36' E 005°02'0 0.2
2017-Aug-22 03:00N 61°36' E 005°02'3 5.0
2017-Aug-22 02:30N 61°38' E 004°59'4 9.2
2017-Aug-22 02:00N 61°43' E 004°58'5 9.3
2017-Aug-22 01:30N 61°46' E 005°03'5 9.7
2017-Aug-22 01:00N 61°49' E 005°12'3 6.2
2017-Aug-22 00:29N 61°52' E 005°14'2 4.2
2017-Aug-22 00:00N 61°54' E 005°16'5 9.7
2017-Aug-21 23:30N 61°55' E 005°26'5 9.4
2017-Aug-21 22:59N 61°54' E 005°36'1 2.3
2017-Aug-21 22:30N 61°54' E 005°38'0 0.3
2017-Aug-21 22:00N 61°54' E 005°38'0 0.0
2017-Aug-21 21:30N 61°54' E 005°38'0 0.0
2017-Aug-21 21:00N 61°54' E 005°38'0 0.0
2017-Aug-21 20:30N 61°54' E 005°38'0 0.0
2017-Aug-21 20:00N 61°54' E 005°38'0 0.0
2017-Aug-21 19:30N 61°54' E 005°38'0 0.0
2017-Aug-21 19:00N 61°54' E 005°38'0 0.0
2017-Aug-21 18:30N 61°54' E 005°38'0 0.0
2017-Aug-21 18:00N 61°54' E 005°38'0 0.0
2017-Aug-21 17:30N 61°54' E 005°38'0 0.0
2017-Aug-21 17:00N 61°54' E 005°38'0 0.0
2017-Aug-21 16:30N 61°54' E 005°38'0 0.0
2017-Aug-21 15:59N 61°54' E 005°38'0 0.0
2017-Aug-21 15:29N 61°54' E 005°38'0 0.0
2017-Aug-21 15:00N 61°54' E 005°38'0 0.0
2017-Aug-21 14:30N 61°54' E 005°38'0 0.0
2017-Aug-21 14:00N 61°54' E 005°38'0 0.0
2017-Aug-21 13:30N 61°54' E 005°38'0 0.0
2017-Aug-21 13:00N 61°54' E 005°38'0 0.0
2017-Aug-21 12:30N 61°54' E 005°38'0 0.0
2017-Aug-21 12:00N 61°54' E 005°38'0 0.0
2017-Aug-21 11:30N 61°54' E 005°38'0 0.0
2017-Aug-21 11:00N 61°54' E 005°38'0 0.0
2017-Aug-21 10:30N 61°54' E 005°38'0 0.0
2017-Aug-21 10:00N 61°54' E 005°38'0 0.0
2017-Aug-21 09:30N 61°54' E 005°38'0 0.1
2017-Aug-21 08:59N 61°54' E 005°38'0 0.0
2017-Aug-21 08:30N 61°54' E 005°38'0 0.0
2017-Aug-21 07:59N 61°54' E 005°38'0 0.0
2017-Aug-21 07:30N 61°54' E 005°38'0 0.0
2017-Aug-21 07:00N 61°54' E 005°38'0 0.1
2017-Aug-21 06:30N 61°54' E 005°38'0 0.0
2017-Aug-21 06:00N 61°54' E 005°38'3 5.8
2017-Aug-21 05:30N 61°55' E 005°32'5 9.2
2017-Aug-21 05:00N 61°55' E 005°22'5 9.5
2017-Aug-21 04:30N 61°54' E 005°13'3 6.9
2017-Aug-21 03:59N 61°56' E 005°08'4 9.0
2017-Aug-21 03:30N 62°01' E 005°09'5 9.5
2017-Aug-21 03:00N 62°05' E 005°06'5 9.0
2017-Aug-21 02:30N 62°09' E 005°02'4 7.8
2017-Aug-21 02:00N 62°13' E 005°07'4 8.6
2017-Aug-21 01:30N 62°12' E 005°16'4 8.3
2017-Aug-21 01:00N 62°11' E 005°24'4 8.7
2017-Aug-21 00:30N 62°11' E 005°33'5 9.0
2017-Aug-20 23:59N 62°12' E 005°43'4 9.1
2017-Aug-20 23:30N 62°12' E 005°53'1 2.0
2017-Aug-20 23:00N 62°12' E 005°54'0 0.1
2017-Aug-20 22:30N 62°12' E 005°54'0 0.1
2017-Aug-20 22:00N 62°12' E 005°54'0 0.0
2017-Aug-20 21:30N 62°12' E 005°54'0 0.0
2017-Aug-20 21:00N 62°12' E 005°54'0 0.0
2017-Aug-20 20:30N 62°12' E 005°54'0 0.0
2017-Aug-20 20:00N 62°12' E 005°54'0 0.0
2017-Aug-20 19:30N 62°12' E 005°54'0 0.0
2017-Aug-20 19:00N 62°12' E 005°54'0 0.0
2017-Aug-20 18:30N 62°12' E 005°54'0 0.0
2017-Aug-20 18:00N 62°12' E 005°54'0 0.0
2017-Aug-20 17:30N 62°12' E 005°54'0 0.0
2017-Aug-20 17:00N 62°12' E 005°54'0 0.0
2017-Aug-20 16:30N 62°12' E 005°54'0 0.0
2017-Aug-20 16:00N 62°12' E 005°54'0 0.0
2017-Aug-20 15:30N 62°12' E 005°54'0 0.0
2017-Aug-20 15:00N 62°12' E 005°54'0 0.0
2017-Aug-20 14:30N 62°12' E 005°54'0 0.0
2017-Aug-20 13:59N 62°12' E 005°54'0 0.0
2017-Aug-20 13:30N 62°12' E 005°54'0 0.0
2017-Aug-20 12:59N 62°12' E 005°54'0 0.6
2017-Aug-20 12:30N 62°12' E 005°55'5 9.1
2017-Aug-20 12:00N 62°16' E 005°58'4 9.0
2017-Aug-20 11:30N 62°19' E 006°04'3 6.1
2017-Aug-20 11:00N 62°22' E 006°02'0 0.2
2017-Aug-20 10:30N 62°22' E 006°02'0 0.0
2017-Aug-20 09:59N 62°22' E 006°02'0 0.0
2017-Aug-20 09:30N 62°22' E 006°02'0 0.0
2017-Aug-20 09:00N 62°22' E 006°02'0 0.0
2017-Aug-20 08:30N 62°22' E 006°02'0 0.0
2017-Aug-20 08:00N 62°22' E 006°02'0 0.0
2017-Aug-20 07:30N 62°22' E 006°02'0 0.0
2017-Aug-20 07:00N 62°22' E 006°02'0 0.0
2017-Aug-20 06:30N 62°22' E 006°02'0 0.0
2017-Aug-20 05:59N 62°22' E 006°02'0 0.0
2017-Aug-20 05:30N 62°22' E 006°02'2 4.3
2017-Aug-20 05:00N 62°25' E 006°02'4 7.7
2017-Aug-20 04:30N 62°28' E 006°05'1 2.7
2017-Aug-20 04:00N 62°28' E 006°08'0 0.0
2017-Aug-20 03:30N 62°28' E 006°08'0 0.0
2017-Aug-20 03:00N 62°28' E 006°08'3 6.4
2017-Aug-20 02:30N 62°31' E 006°09'5 9.3
2017-Aug-20 02:00N 62°35' E 006°15'5 9.5
2017-Aug-20 01:30N 62°38' E 006°23'5 9.2
2017-Aug-20 01:00N 62°42' E 006°28'5 9.4
2017-Aug-20 00:30N 62°46' E 006°34'5 9.2
2017-Aug-20 00:00N 62°50' E 006°39'5 9.2
2017-Aug-19 23:30N 62°54' E 006°45'5 9.4
2017-Aug-19 23:00N 62°57' E 006°51'4 9.0
2017-Aug-19 22:30N 62°60' E 006°60'5 9.3
2017-Aug-19 22:00N 63°01' E 007°09'5 9.3
2017-Aug-19 21:30N 63°03' E 007°19'5 9.2
2017-Aug-19 21:00N 63°05' E 007°28'5 9.2
2017-Aug-19 20:30N 63°07' E 007°37'4 7.8
2017-Aug-19 20:00N 63°04' E 007°41'1 1.3
2017-Aug-19 19:30N 63°03' E 007°42'0 0.0
2017-Aug-19 19:00N 63°03' E 007°42'4 7.7
2017-Aug-19 18:30N 63°07' E 007°41'4 8.9
2017-Aug-19 18:00N 63°11' E 007°46'5 9.1
2017-Aug-19 17:30N 63°15' E 007°52'1 1.4
2017-Aug-19 17:00N 63°15' E 007°51'0 0.0
2017-Aug-19 16:30N 63°15' E 007°51'2 4.6
2017-Aug-19 16:00N 63°14' E 007°56'4 8.8
2017-Aug-19 15:30N 63°16' E 008°05'4 8.4
2017-Aug-19 15:00N 63°18' E 008°13'9 8.8
2017-Aug-19 14:00N 63°23' E 008°29'5 9.0
2017-Aug-19 13:30N 63°25' E 008°38'4 8.9
2017-Aug-19 13:00N 63°27' E 008°47'5 9.0
2017-Aug-19 12:30N 63°28' E 008°57'4 9.1
2017-Aug-19 12:00N 63°30' E 009°06'4 8.8
2017-Aug-19 11:30N 63°32' E 009°15'5 8.8
2017-Aug-19 11:00N 63°35' E 009°23'4 8.5
2017-Aug-19 10:30N 63°38' E 009°29'4 8.0
2017-Aug-19 10:00N 63°42' E 009°30'5 9.2
2017-Aug-19 09:30N 63°47' E 009°33'5 9.7
2017-Aug-19 09:00N 63°51' E 009°38'5 9.8
2017-Aug-19 08:29N 63°53' E 009°48'2 3.5
2017-Aug-19 08:00N 63°53' E 009°52'0 0.0
2017-Aug-19 07:30N 63°53' E 009°52'0 0.0
2017-Aug-19 07:00N 63°53' E 009°52'0 0.0
2017-Aug-19 06:30N 63°53' E 009°52'0 0.0
2017-Aug-19 06:00N 63°53' E 009°52'0 0.0
2017-Aug-19 05:30N 63°53' E 009°52'0 0.0
2017-Aug-19 05:00N 63°53' E 009°52'0 0.0
2017-Aug-19 04:30N 63°53' E 009°52'0 0.0
2017-Aug-19 04:00N 63°53' E 009°52'0 0.0
2017-Aug-19 03:30N 63°53' E 009°52'0 0.0
2017-Aug-19 03:00N 63°53' E 009°52'0 0.0
2017-Aug-19 02:30N 63°53' E 009°52'0 0.0
2017-Aug-19 02:00N 63°53' E 009°52'0 0.0
2017-Aug-19 01:30N 63°53' E 009°52'0 0.0
2017-Aug-19 01:00N 63°53' E 009°52'0 0.0
2017-Aug-19 00:30N 63°53' E 009°52'0 0.0
2017-Aug-19 00:00N 63°53' E 009°52'0 0.0
2017-Aug-18 23:30N 63°53' E 009°52'0 0.0
2017-Aug-18 23:00N 63°53' E 009°52'0 0.0
2017-Aug-18 22:30N 63°53' E 009°52'0 0.0
2017-Aug-18 22:00N 63°53' E 009°52'0 0.0
2017-Aug-18 21:30N 63°53' E 009°52'0 0.0
2017-Aug-18 21:00N 63°53' E 009°52'0 0.0
2017-Aug-18 20:30N 63°53' E 009°52'0 0.0
2017-Aug-18 20:00N 63°53' E 009°52'0 0.0
2017-Aug-18 19:30N 63°53' E 009°52'0 0.0
2017-Aug-18 19:00N 63°53' E 009°52'0 0.0
2017-Aug-18 18:30N 63°53' E 009°52'0 0.0
2017-Aug-18 18:00N 63°53' E 009°52'0 0.0
2017-Aug-18 17:30N 63°53' E 009°52'0 0.0
2017-Aug-18 17:00N 63°53' E 009°52'0 0.0
2017-Aug-18 16:30N 63°53' E 009°52'0 0.0
2017-Aug-18 16:00N 63°53' E 009°52'0 0.0
2017-Aug-18 15:30N 63°53' E 009°52'0 0.0
2017-Aug-18 15:00N 63°53' E 009°52'0 0.0
2017-Aug-18 14:29N 63°53' E 009°52'0 0.0
2017-Aug-18 13:30N 63°53' E 009°52'0 0.0
2017-Aug-18 13:00N 63°53' E 009°52'0 0.0
2017-Aug-18 12:30N 63°53' E 009°52'0 0.0
2017-Aug-18 11:59N 63°53' E 009°52'0 0.0
2017-Aug-18 11:30N 63°53' E 009°52'0 0.0
2017-Aug-18 11:00N 63°53' E 009°52'0 0.0
2017-Aug-18 10:30N 63°53' E 009°52'0 0.0
2017-Aug-18 10:00N 63°53' E 009°52'0 0.0
2017-Aug-18 09:30N 63°53' E 009°52'0 0.0
2017-Aug-18 09:00N 63°53' E 009°52'0 0.0
2017-Aug-18 08:30N 63°53' E 009°52'0 0.0
2017-Aug-18 08:00N 63°53' E 009°52'0 0.0
2017-Aug-18 07:30N 63°53' E 009°52'0 0.0
2017-Aug-18 07:00N 63°53' E 009°52'0 0.0
2017-Aug-18 06:30N 63°53' E 009°52'0 0.0
2017-Aug-18 06:00N 63°53' E 009°52'0 0.0
2017-Aug-18 05:30N 63°53' E 009°52'0 0.1
2017-Aug-18 05:00N 63°53' E 009°52'2 4.6
2017-Aug-18 04:30N 63°53' E 009°47'4 9.0
2017-Aug-18 04:00N 63°51' E 009°38'5 9.6
2017-Aug-18 03:30N 63°46' E 009°32'4 9.2
2017-Aug-18 03:00N 63°45' E 009°23'5 9.1
2017-Aug-18 02:30N 63°44' E 009°13'5 9.3
2017-Aug-18 02:00N 63°43' E 009°03'5 9.3
2017-Aug-18 01:30N 63°43' E 008°52'1 1.4
2017-Aug-18 01:00N 63°43' E 008°52'2 3.2
2017-Aug-18 00:30N 63°42' E 008°54'4 8.4
2017-Aug-18 00:00N 63°40' E 008°45'4 8.9
2017-Aug-17 23:30N 63°39' E 008°35'4 9.0
2017-Aug-17 23:00N 63°38' E 008°26'5 9.2
2017-Aug-17 22:30N 63°36' E 008°17'5 9.8
2017-Aug-17 22:00N 63°32' E 008°09'4 8.9
2017-Aug-17 21:30N 63°30' E 008°01'0 0.1
2017-Aug-17 21:00N 63°30' E 008°01'3 6.1
2017-Aug-17 20:30N 63°29' E 008°07'510.3
2017-Aug-17 20:00N 63°25' E 008°16'12 9.5
2017-Aug-17 18:45N 63°27' E 008°43'2 6.3
2017-Aug-17 18:30N 63°27' E 008°47'5 9.1
2017-Aug-17 17:59N 63°29' E 008°56'4 9.1
2017-Aug-17 17:30N 63°30' E 009°06'4 8.4
2017-Aug-17 17:00N 63°32' E 009°14'4 7.5
2017-Aug-17 16:30N 63°36' E 009°11'5 9.2
2017-Aug-17 16:00N 63°37' E 009°01'0 1.0
2017-Aug-17 15:30N 63°37' E 008°59'0 0.3
2017-Aug-17 15:00N 63°37' E 008°60'0 0.0
2017-Aug-17 14:30N 63°37' E 008°60'0 0.0
2017-Aug-17 14:00N 63°37' E 008°60'0 0.0
2017-Aug-17 13:30N 63°37' E 008°60'0 0.0
2017-Aug-17 13:00N 63°37' E 008°60'0 0.0
2017-Aug-17 12:30N 63°37' E 008°60'0 0.0
2017-Aug-17 12:00N 63°37' E 008°60'0 0.0
2017-Aug-17 11:30N 63°37' E 008°60'0 0.0
2017-Aug-17 11:00N 63°37' E 008°60'0 0.1
2017-Aug-17 10:30N 63°37' E 008°60'0 0.0
2017-Aug-17 10:00N 63°37' E 008°60'0 0.0
2017-Aug-17 09:30N 63°37' E 008°60'0 0.0
2017-Aug-17 09:00N 63°37' E 008°60'0 0.0
2017-Aug-17 08:30N 63°37' E 008°60'0 0.0
2017-Aug-17 08:00N 63°37' E 008°60'0 0.0
2017-Aug-17 07:30N 63°37' E 008°60'0 0.0
2017-Aug-17 07:00N 63°37' E 008°60'0 0.1
2017-Aug-17 06:30N 63°37' E 008°60'0 0.0
2017-Aug-17 06:00N 63°37' E 008°60'0 0.0
2017-Aug-17 05:30N 63°37' E 008°60'0 0.0
2017-Aug-17 05:00N 63°37' E 008°60'0 0.0
2017-Aug-17 04:30N 63°37' E 008°60'0 0.0
2017-Aug-17 04:00N 63°37' E 008°60'0 0.0
2017-Aug-17 03:30N 63°37' E 008°60'0 0.0
2017-Aug-17 03:00N 63°37' E 008°60'0 0.0
2017-Aug-17 02:29N 63°37' E 008°60'0 0.1
2017-Aug-17 02:00N 63°37' E 008°60'0 0.0
2017-Aug-17 01:30N 63°37' E 008°60'0 0.0
2017-Aug-17 01:00N 63°37' E 008°60'0 0.0
2017-Aug-17 00:30N 63°37' E 008°60'0 0.0
2017-Aug-17 00:00N 63°37' E 008°60'0 0.0
2017-Aug-16 23:30N 63°37' E 008°60'0 0.0
2017-Aug-16 22:59N 63°37' E 008°60'0 0.0
2017-Aug-16 22:30N 63°37' E 008°60'0 0.0
2017-Aug-16 22:00N 63°37' E 008°60'1 1.0
2017-Aug-16 21:30N 63°37' E 009°01'5 9.6
2017-Aug-16 21:00N 63°36' E 009°11'4 7.5
2017-Aug-16 20:30N 63°32' E 009°12'510.3
2017-Aug-16 20:00N 63°29' E 009°02'5 9.9
2017-Aug-16 19:30N 63°28' E 008°51'510.3
2017-Aug-16 19:00N 63°26' E 008°40'510.4
2017-Aug-16 18:30N 63°25' E 008°29'510.2
2017-Aug-16 18:00N 63°24' E 008°18'2 4.8
2017-Aug-16 17:30N 63°24' E 008°13'2 5.0
2017-Aug-16 17:00N 63°22' E 008°17'5 9.4
2017-Aug-16 16:30N 63°18' E 008°13'510.7
2017-Aug-16 16:00N 63°15' E 008°03'510.5
2017-Aug-16 15:30N 63°13' E 007°53'510.4
2017-Aug-16 15:00N 63°10' E 007°43'510.4
2017-Aug-16 14:30N 63°07' E 007°34'510.2
2017-Aug-16 14:00N 63°04' E 007°24'510.2
2017-Aug-16 13:30N 63°02' E 007°14'510.2
2017-Aug-16 13:00N 63°00' E 007°03'510.4
2017-Aug-16 12:30N 62°58' E 006°53'510.1
2017-Aug-16 12:00N 62°54' E 006°46'510.2
2017-Aug-16 11:30N 62°50' E 006°40'510.1
2017-Aug-16 11:00N 62°46' E 006°34'510.1
2017-Aug-16 10:30N 62°42' E 006°27'510.1
2017-Aug-16 10:00N 62°38' E 006°21'510.0
2017-Aug-16 09:30N 62°34' E 006°13'5 9.7
2017-Aug-16 09:00N 62°30' E 006°09'5 9.8
2017-Aug-16 08:30N 62°27' E 005°60'5 9.9
2017-Aug-16 08:00N 62°25' E 005°50'5 9.8
2017-Aug-16 07:30N 62°21' E 005°45'4 8.3
2017-Aug-16 07:00N 62°18' E 005°37'5 9.5
2017-Aug-16 06:30N 62°18' E 005°27'5 9.7
2017-Aug-16 06:00N 62°16' E 005°17'510.0
2017-Aug-16 05:30N 62°13' E 005°08'5 9.1
2017-Aug-16 04:59N 62°09' E 005°04'5 9.8
2017-Aug-16 04:30N 62°04' E 005°07'5 9.3
2017-Aug-16 03:59N 61°60' E 005°10'5 9.7
2017-Aug-16 03:30N 61°55' E 005°07'4 8.9
2017-Aug-16 03:00N 61°52' E 005°14'3 6.7
2017-Aug-16 02:30N 61°49' E 005°11'5 9.7
2017-Aug-16 02:00N 61°46' E 005°03'5 9.2
2017-Aug-16 01:30N 61°42' E 004°58'5 9.2
2017-Aug-16 01:00N 61°38' E 004°59'4 8.6
2017-Aug-16 00:30N 61°34' E 004°59'5 9.2
2017-Aug-16 00:00N 61°29' E 004°59'5 9.8
2017-Aug-15 23:30N 61°25' E 004°52'5 9.9
2017-Aug-15 23:00N 61°21' E 004°48'5 9.8
2017-Aug-15 22:30N 61°16' E 004°45'4 8.7
2017-Aug-15 22:00N 61°12' E 004°43'5 9.3
2017-Aug-15 21:30N 61°07' E 004°45'5 9.5
2017-Aug-15 21:00N 61°02' E 004°44'5 9.7
2017-Aug-15 20:30N 60°58' E 004°46'5 9.6
2017-Aug-15 20:00N 60°53' E 004°46'5 9.1
2017-Aug-15 19:30N 60°48' E 004°45'5 9.3
2017-Aug-15 19:00N 60°45' E 004°52'1 1.2
2017-Aug-15 18:30N 60°45' E 004°53'0 0.3
2017-Aug-15 18:00N 60°45' E 004°53'0 0.3
2017-Aug-15 17:29N 60°45' E 004°53'0 0.0
2017-Aug-15 17:00N 60°45' E 004°53'0 0.0
2017-Aug-15 16:30N 60°45' E 004°53'0 0.0
2017-Aug-15 16:00N 60°45' E 004°53'0 0.0
2017-Aug-15 15:29N 60°45' E 004°53'0 0.0
2017-Aug-15 15:00N 60°45' E 004°53'0 0.0
2017-Aug-15 14:30N 60°45' E 004°53'0 0.0
2017-Aug-15 14:00N 60°45' E 004°53'0 0.0
2017-Aug-15 13:30N 60°45' E 004°53'0 0.0
2017-Aug-15 13:00N 60°45' E 004°53'0 0.0
2017-Aug-15 12:30N 60°45' E 004°53'0 0.0
2017-Aug-15 12:00N 60°45' E 004°53'0 0.0
2017-Aug-15 11:30N 60°45' E 004°53'0 0.0
2017-Aug-15 11:00N 60°45' E 004°53'0 0.0
2017-Aug-15 10:30N 60°45' E 004°53'0 0.0
2017-Aug-15 10:00N 60°45' E 004°53'0 0.0
2017-Aug-15 09:30N 60°45' E 004°53'0 0.0
2017-Aug-15 09:00N 60°45' E 004°53'0 0.0
2017-Aug-15 08:30N 60°45' E 004°53'0 0.0
2017-Aug-15 08:00N 60°45' E 004°53'1 1.0
2017-Aug-15 07:30N 60°45' E 004°52'3 7.0
2017-Aug-15 07:00N 60°42' E 004°50'510.6
2017-Aug-15 06:30N 60°37' E 004°54'510.6
2017-Aug-15 06:00N 60°32' E 004°57'510.5
2017-Aug-15 05:30N 60°27' E 005°01'5 9.8
2017-Aug-15 05:00N 60°24' E 005°08'4 8.1
2017-Aug-15 04:30N 60°20' E 005°09'4 8.0
2017-Aug-15 04:00N 60°16' E 005°07'0 0.2
2017-Aug-15 03:30N 60°16' E 005°06'4 7.2
2017-Aug-15 03:00N 60°13' E 005°10'4 8.7
2017-Aug-15 02:30N 60°09' E 005°06'3 5.9
2017-Aug-15 02:00N 60°06' E 005°05'1 2.8
2017-Aug-15 01:30N 60°06' E 005°07'0 0.1
2017-Aug-15 01:00N 60°06' E 005°07'2 3.2
2017-Aug-15 00:30N 60°04' E 005°07'510.7
2017-Aug-15 00:00N 60°00' E 005°13'510.1
2017-Aug-14 23:30N 59°58' E 005°23'510.8
2017-Aug-14 23:00N 59°55' E 005°31'510.1
2017-Aug-14 22:30N 59°50' E 005°33'510.0
2017-Aug-14 22:00N 59°45' E 005°37'4 9.2
2017-Aug-14 21:30N 59°42' E 005°43'4 8.6
2017-Aug-14 21:00N 59°45' E 005°48'0 0.4
2017-Aug-14 20:30N 59°46' E 005°48'4 7.6
2017-Aug-14 20:00N 59°42' E 005°44'4 8.7
2017-Aug-14 19:30N 59°43' E 005°36'4 8.7
2017-Aug-14 19:00N 59°43' E 005°27'5 9.6
2017-Aug-14 18:30N 59°39' E 005°21'5 9.8
2017-Aug-14 18:00N 59°35' E 005°15'5 9.4
2017-Aug-14 17:30N 59°31' E 005°13'5 9.4
2017-Aug-14 16:59N 59°26' E 005°14'4 8.6
2017-Aug-14 16:30N 59°22' E 005°18'5 9.3
2017-Aug-14 16:00N 59°18' E 005°20'3 6.4
2017-Aug-14 15:29N 59°15' E 005°24'1 1.5
2017-Aug-14 14:35N 59°14' E 005°22'110.3
2017-Aug-14 14:28N 59°13' E 005°22'4 9.2
2017-Aug-14 13:59N 59°08' E 005°24'4 8.7
2017-Aug-14 13:30N 59°09' E 005°32'5 9.8
2017-Aug-14 13:00N 59°11' E 005°41'5 9.6
2017-Aug-14 12:30N 59°12' E 005°50'4 7.9
2017-Aug-14 12:00N 59°12' E 005°58'0 1.0
2017-Aug-14 11:30N 59°13' E 005°57'2 3.3
2017-Aug-14 11:00N 59°14' E 005°60'4 8.5
2017-Aug-14 10:29N 59°17' E 006°06'1 2.8
2017-Aug-14 10:00N 59°17' E 006°04'1 3.0
2017-Aug-14 09:30N 59°18' E 006°01'1 2.5
2017-Aug-14 09:00N 59°18' E 005°59'0 0.0
2017-Aug-14 08:30N 59°18' E 005°59'3 5.7
2017-Aug-14 08:00N 59°16' E 005°55'4 8.5
2017-Aug-14 07:29N 59°12' E 005°50'4 9.2
2017-Aug-14 07:00N 59°11' E 005°42'5 9.1
2017-Aug-14 06:30N 59°09' E 005°33'4 8.1
2017-Aug-14 06:00N 59°07' E 005°26'4 8.5
2017-Aug-14 05:30N 59°10' E 005°21'5 8.9
2017-Aug-14 05:00N 59°15' E 005°20'5 9.7
2017-Aug-14 04:30N 59°20' E 005°19'5 9.7
2017-Aug-14 04:00N 59°24' E 005°16'5 9.3
2017-Aug-14 03:30N 59°29' E 005°13'5 9.4
2017-Aug-14 03:00N 59°33' E 005°13'4 9.1
2017-Aug-14 02:30N 59°37' E 005°18'5 9.2
2017-Aug-14 02:00N 59°41' E 005°23'4 9.2
2017-Aug-14 01:30N 59°44' E 005°30'5 9.0
2017-Aug-14 01:00N 59°48' E 005°33'5 9.3
2017-Aug-14 00:30N 59°53' E 005°32'4 9.0
2017-Aug-14 00:00N 59°57' E 005°27'5 9.1
2017-Aug-13 23:30N 60°00' E 005°21'5 9.5
2017-Aug-13 23:00N 60°05' E 005°19'5 9.4
2017-Aug-13 22:30N 60°09' E 005°15'5 9.4
2017-Aug-13 22:00N 60°13' E 005°10'4 8.8
2017-Aug-13 21:30N 60°17' E 005°11'4 8.7
2017-Aug-13 21:00N 60°22' E 005°10'5 9.1
2017-Aug-13 20:30N 60°25' E 005°04'5 9.4
2017-Aug-13 20:00N 60°29' E 004°59'5 9.5
2017-Aug-13 19:30N 60°34' E 004°56'5 9.3
2017-Aug-13 18:59N 60°38' E 004°53'2 4.5
2017-Aug-13 18:30N 60°40' E 004°55'0 0.3
2017-Aug-13 18:00N 60°40' E 004°55'0 0.5
2017-Aug-13 17:29N 60°40' E 004°55'0 0.0
2017-Aug-13 17:00N 60°40' E 004°55'0 0.0
2017-Aug-13 16:30N 60°40' E 004°55'0 0.1
2017-Aug-13 16:00N 60°40' E 004°55'0 0.0
2017-Aug-13 15:30N 60°40' E 004°55'0 0.0
2017-Aug-13 15:00N 60°40' E 004°55'0 0.0
2017-Aug-13 14:30N 60°40' E 004°55'0 0.5
2017-Aug-13 14:00N 60°40' E 004°55'0 0.0
2017-Aug-13 13:30N 60°40' E 004°55'0 0.0
2017-Aug-13 13:00N 60°40' E 004°55'0 0.0
2017-Aug-13 12:29N 60°40' E 004°55'0 0.0
2017-Aug-13 12:00N 60°40' E 004°55'0 0.0
2017-Aug-13 11:30N 60°40' E 004°55'0 0.0
2017-Aug-13 11:00N 60°40' E 004°55'0 0.0
2017-Aug-13 10:29N 60°40' E 004°55'0 0.0
2017-Aug-13 10:00N 60°40' E 004°55'0 0.3
2017-Aug-13 09:30N 60°40' E 004°55'0 0.0
2017-Aug-13 09:00N 60°40' E 004°55'0 0.0
2017-Aug-13 08:30N 60°40' E 004°55'0 0.0
2017-Aug-13 08:00N 60°40' E 004°55'0 0.0
2017-Aug-13 07:30N 60°40' E 004°55'0 0.0
2017-Aug-13 07:00N 60°40' E 004°55'0 0.0
2017-Aug-13 06:30N 60°40' E 004°55'0 0.0
2017-Aug-13 06:00N 60°40' E 004°55'2 3.8
2017-Aug-13 05:30N 60°41' E 004°52'2 5.0
2017-Aug-13 05:00N 60°43' E 004°48'3 6.5
2017-Aug-13 04:30N 60°46' E 004°46'3 6.4
2017-Aug-13 04:00N 60°49' E 004°44'4 7.9
2017-Aug-13 03:30N 60°53' E 004°46'4 8.0
2017-Aug-13 03:00N 60°57' E 004°46'4 8.0
2017-Aug-13 02:30N 61°00' E 004°49'510.1
2017-Aug-13 02:00N 61°03' E 004°58'510.5
2017-Aug-13 01:30N 61°05' E 005°07'5 9.5
2017-Aug-13 01:00N 61°05' E 005°17'5 9.4
2017-Aug-13 00:30N 61°04' E 005°27'5 9.7
2017-Aug-12 23:59N 61°06' E 005°37'5 9.7
2017-Aug-12 23:29N 61°08' E 005°46'5 9.5
2017-Aug-12 23:00N 61°08' E 005°56'4 7.4
2017-Aug-12 22:31N 61°07' E 006°02'0 0.3
2017-Aug-12 22:00N 61°07' E 006°03'3 6.7
2017-Aug-12 21:30N 61°09' E 006°07'1 1.1
2017-Aug-12 21:00N 61°09' E 006°06'510.2
2017-Aug-12 20:30N 61°08' E 005°56'510.1
2017-Aug-12 20:00N 61°08' E 005°45'5 9.9
2017-Aug-12 19:30N 61°06' E 005°36'5 9.7
2017-Aug-12 19:00N 61°04' E 005°26'5 9.2
2017-Aug-12 18:30N 61°05' E 005°17'5 9.7
2017-Aug-12 18:00N 61°08' E 005°08'510.3
2017-Aug-12 17:30N 61°11' E 005°01'5 9.6
2017-Aug-12 17:00N 61°15' E 004°55'5 9.3
2017-Aug-12 16:30N 61°18' E 005°02'5 9.9
2017-Aug-12 16:00N 61°21' E 005°12'3 5.4
2017-Aug-12 15:30N 61°21' E 005°17'3 5.2
2017-Aug-12 15:00N 61°21' E 005°12'  

Dump ship's entire track history